sensor_id;sensor_type;location;lat;lon;timestamp;P1;durP1;ratioP1;P2;durP2;ratioP2
73900;SDS011;62235;52.160;7.526;2023-05-07T00:00:07;11.27;;;6.13;;
73900;SDS011;62235;52.160;7.526;2023-05-07T00:02:33;9.27;;;6.10;;
73900;SDS011;62235;52.160;7.526;2023-05-07T00:04:59;11.88;;;6.05;;
73900;SDS011;62235;52.160;7.526;2023-05-07T00:07:24;10.55;;;5.93;;
73900;SDS011;62235;52.160;7.526;2023-05-07T00:09:49;12.82;;;6.05;;
73900;SDS011;62235;52.160;7.526;2023-05-07T00:12:15;10.57;;;5.73;;
73900;SDS011;62235;52.160;7.526;2023-05-07T00:14:40;10.10;;;5.68;;
73900;SDS011;62235;52.160;7.526;2023-05-07T00:17:06;9.60;;;6.30;;
73900;SDS011;62235;52.160;7.526;2023-05-07T00:19:31;10.88;;;6.45;;
73900;SDS011;62235;52.160;7.526;2023-05-07T00:21:56;10.52;;;5.95;;
73900;SDS011;62235;52.160;7.526;2023-05-07T00:24:23;10.85;;;6.38;;
73900;SDS011;62235;52.160;7.526;2023-05-07T00:26:49;11.30;;;6.43;;
73900;SDS011;62235;52.160;7.526;2023-05-07T00:29:14;11.18;;;6.72;;
73900;SDS011;62235;52.160;7.526;2023-05-07T00:31:39;10.85;;;6.35;;
73900;SDS011;62235;52.160;7.526;2023-05-07T00:34:05;10.47;;;6.17;;
73900;SDS011;62235;52.160;7.526;2023-05-07T00:36:30;9.88;;;6.15;;
73900;SDS011;62235;52.160;7.526;2023-05-07T00:38:56;11.80;;;6.32;;
73900;SDS011;62235;52.160;7.526;2023-05-07T00:41:22;11.25;;;6.30;;
73900;SDS011;62235;52.160;7.526;2023-05-07T00:43:47;12.50;;;6.90;;
73900;SDS011;62235;52.160;7.526;2023-05-07T00:46:13;13.17;;;6.87;;
73900;SDS011;62235;52.160;7.526;2023-05-07T00:48:38;11.93;;;6.97;;
73900;SDS011;62235;52.160;7.526;2023-05-07T00:51:04;11.70;;;7.43;;
73900;SDS011;62235;52.160;7.526;2023-05-07T00:53:29;13.00;;;6.90;;
73900;SDS011;62235;52.160;7.526;2023-05-07T00:55:55;10.63;;;6.93;;
73900;SDS011;62235;52.160;7.526;2023-05-07T00:58:21;12.00;;;7.03;;
73900;SDS011;62235;52.160;7.526;2023-05-07T01:00:46;11.98;;;7.53;;
73900;SDS011;62235;52.160;7.526;2023-05-07T01:03:11;12.82;;;7.72;;
73900;SDS011;62235;52.160;7.526;2023-05-07T01:05:37;15.07;;;8.55;;
73900;SDS011;62235;52.160;7.526;2023-05-07T01:08:02;15.95;;;8.80;;
73900;SDS011;62235;52.160;7.526;2023-05-07T01:10:28;15.98;;;8.52;;
73900;SDS011;62235;52.160;7.526;2023-05-07T01:12:55;14.90;;;8.68;;
73900;SDS011;62235;52.160;7.526;2023-05-07T01:15:22;13.82;;;8.93;;
73900;SDS011;62235;52.160;7.526;2023-05-07T01:17:48;14.57;;;8.98;;
73900;SDS011;62235;52.160;7.526;2023-05-07T01:20:13;14.82;;;9.20;;
73900;SDS011;62235;52.160;7.526;2023-05-07T01:22:39;16.30;;;9.10;;
73900;SDS011;62235;52.160;7.526;2023-05-07T01:25:05;14.77;;;8.95;;
73900;SDS011;62235;52.160;7.526;2023-05-07T01:27:32;15.63;;;8.55;;
73900;SDS011;62235;52.160;7.526;2023-05-07T01:29:58;15.43;;;9.32;;
73900;SDS011;62235;52.160;7.526;2023-05-07T01:32:27;16.75;;;10.15;;
73900;SDS011;62235;52.160;7.526;2023-05-07T01:34:54;14.20;;;9.07;;
73900;SDS011;62235;52.160;7.526;2023-05-07T01:37:20;22.08;;;11.57;;
73900;SDS011;62235;52.160;7.526;2023-05-07T01:39:46;15.60;;;9.05;;
73900;SDS011;62235;52.160;7.526;2023-05-07T01:42:12;20.27;;;10.95;;
73900;SDS011;62235;52.160;7.526;2023-05-07T01:44:38;18.00;;;9.70;;
73900;SDS011;62235;52.160;7.526;2023-05-07T01:47:03;19.80;;;11.70;;
73900;SDS011;62235;52.160;7.526;2023-05-07T01:49:29;16.42;;;10.10;;
73900;SDS011;62235;52.160;7.526;2023-05-07T01:51:55;18.02;;;10.82;;
73900;SDS011;62235;52.160;7.526;2023-05-07T01:54:24;17.08;;;10.52;;
73900;SDS011;62235;52.160;7.526;2023-05-07T01:56:52;18.23;;;10.15;;
73900;SDS011;62235;52.160;7.526;2023-05-07T01:59:17;16.08;;;9.15;;
73900;SDS011;62235;52.160;7.526;2023-05-07T02:01:43;20.53;;;10.87;;
73900;SDS011;62235;52.160;7.526;2023-05-07T02:04:08;17.57;;;10.23;;
73900;SDS011;62235;52.160;7.526;2023-05-07T02:06:33;20.30;;;11.50;;
73900;SDS011;62235;52.160;7.526;2023-05-07T02:08:59;18.95;;;11.52;;
73900;SDS011;62235;52.160;7.526;2023-05-07T02:11:24;17.63;;;11.10;;
73900;SDS011;62235;52.160;7.526;2023-05-07T02:13:50;17.95;;;11.07;;
73900;SDS011;62235;52.160;7.526;2023-05-07T02:16:15;19.20;;;10.80;;
73900;SDS011;62235;52.160;7.526;2023-05-07T02:18:41;21.13;;;12.60;;
73900;SDS011;62235;52.160;7.526;2023-05-07T02:21:06;21.30;;;11.57;;
73900;SDS011;62235;52.160;7.526;2023-05-07T02:23:31;19.40;;;11.17;;
73900;SDS011;62235;52.160;7.526;2023-05-07T02:25:56;19.20;;;11.38;;
73900;SDS011;62235;52.160;7.526;2023-05-07T02:28:22;20.40;;;10.93;;
73900;SDS011;62235;52.160;7.526;2023-05-07T02:30:47;18.55;;;12.02;;
73900;SDS011;62235;52.160;7.526;2023-05-07T02:33:12;18.73;;;11.80;;
73900;SDS011;62235;52.160;7.526;2023-05-07T02:35:38;18.23;;;10.95;;
73900;SDS011;62235;52.160;7.526;2023-05-07T02:38:04;18.60;;;11.10;;
73900;SDS011;62235;52.160;7.526;2023-05-07T02:40:29;20.77;;;11.68;;
73900;SDS011;62235;52.160;7.526;2023-05-07T02:42:58;21.30;;;11.85;;
73900;SDS011;62235;52.160;7.526;2023-05-07T02:45:24;21.45;;;12.20;;
73900;SDS011;62235;52.160;7.526;2023-05-07T02:47:49;21.75;;;11.88;;
73900;SDS011;62235;52.160;7.526;2023-05-07T02:50:14;22.23;;;11.27;;
73900;SDS011;62235;52.160;7.526;2023-05-07T02:52:40;18.65;;;11.93;;
73900;SDS011;62235;52.160;7.526;2023-05-07T02:55:05;22.40;;;12.00;;
73900;SDS011;62235;52.160;7.526;2023-05-07T02:57:31;18.48;;;10.68;;
73900;SDS011;62235;52.160;7.526;2023-05-07T02:59:57;19.43;;;10.87;;
73900;SDS011;62235;52.160;7.526;2023-05-07T03:02:23;18.48;;;11.25;;
73900;SDS011;62235;52.160;7.526;2023-05-07T03:04:48;19.75;;;11.07;;
73900;SDS011;62235;52.160;7.526;2023-05-07T03:07:13;18.30;;;10.80;;
73900;SDS011;62235;52.160;7.526;2023-05-07T03:09:39;19.25;;;11.60;;
73900;SDS011;62235;52.160;7.526;2023-05-07T03:12:04;19.20;;;10.95;;
73900;SDS011;62235;52.160;7.526;2023-05-07T03:14:30;18.23;;;9.52;;
73900;SDS011;62235;52.160;7.526;2023-05-07T03:16:55;18.43;;;10.97;;
73900;SDS011;62235;52.160;7.526;2023-05-07T03:19:20;21.40;;;12.33;;
73900;SDS011;62235;52.160;7.526;2023-05-07T03:21:46;20.05;;;11.55;;
73900;SDS011;62235;52.160;7.526;2023-05-07T03:24:11;17.33;;;10.85;;
73900;SDS011;62235;52.160;7.526;2023-05-07T03:26:36;17.50;;;10.68;;
73900;SDS011;62235;52.160;7.526;2023-05-07T03:29:02;18.87;;;11.60;;
73900;SDS011;62235;52.160;7.526;2023-05-07T03:31:27;21.00;;;12.07;;
73900;SDS011;62235;52.160;7.526;2023-05-07T03:33:53;19.73;;;10.00;;
73900;SDS011;62235;52.160;7.526;2023-05-07T03:36:19;21.00;;;11.98;;
73900;SDS011;62235;52.160;7.526;2023-05-07T03:38:45;14.23;;;8.82;;
73900;SDS011;62235;52.160;7.526;2023-05-07T03:41:11;21.25;;;11.70;;
73900;SDS011;62235;52.160;7.526;2023-05-07T03:43:37;20.83;;;12.32;;
73900;SDS011;62235;52.160;7.526;2023-05-07T03:46:02;21.73;;;13.83;;
73900;SDS011;62235;52.160;7.526;2023-05-07T03:48:27;19.10;;;11.53;;
73900;SDS011;62235;52.160;7.526;2023-05-07T03:50:53;21.83;;;11.73;;
73900;SDS011;62235;52.160;7.526;2023-05-07T03:53:18;19.77;;;11.10;;
73900;SDS011;62235;52.160;7.526;2023-05-07T03:55:43;23.00;;;13.10;;
73900;SDS011;62235;52.160;7.526;2023-05-07T03:58:09;21.10;;;12.52;;
73900;SDS011;62235;52.160;7.526;2023-05-07T04:00:34;21.35;;;12.02;;
73900;SDS011;62235;52.160;7.526;2023-05-07T04:03:03;23.33;;;14.15;;
73900;SDS011;62235;52.160;7.526;2023-05-07T04:05:29;22.25;;;12.70;;
73900;SDS011;62235;52.160;7.526;2023-05-07T04:07:55;23.00;;;12.85;;
73900;SDS011;62235;52.160;7.526;2023-05-07T04:10:20;19.65;;;11.35;;
73900;SDS011;62235;52.160;7.526;2023-05-07T04:12:45;22.10;;;10.60;;
73900;SDS011;62235;52.160;7.526;2023-05-07T04:15:11;24.33;;;13.20;;
73900;SDS011;62235;52.160;7.526;2023-05-07T04:17:36;22.10;;;12.95;;
73900;SDS011;62235;52.160;7.526;2023-05-07T04:20:02;24.30;;;13.85;;
73900;SDS011;62235;52.160;7.526;2023-05-07T04:22:27;23.55;;;13.23;;
73900;SDS011;62235;52.160;7.526;2023-05-07T04:24:52;21.92;;;12.90;;
73900;SDS011;62235;52.160;7.526;2023-05-07T04:27:18;21.08;;;13.10;;
73900;SDS011;62235;52.160;7.526;2023-05-07T04:29:43;24.43;;;13.50;;
73900;SDS011;62235;52.160;7.526;2023-05-07T04:32:12;23.08;;;12.45;;
73900;SDS011;62235;52.160;7.526;2023-05-07T04:34:37;24.13;;;13.05;;
73900;SDS011;62235;52.160;7.526;2023-05-07T04:37:02;21.95;;;11.27;;
73900;SDS011;62235;52.160;7.526;2023-05-07T04:39:28;19.40;;;11.37;;
73900;SDS011;62235;52.160;7.526;2023-05-07T04:41:53;22.48;;;12.90;;
73900;SDS011;62235;52.160;7.526;2023-05-07T04:44:18;19.60;;;11.13;;
73900;SDS011;62235;52.160;7.526;2023-05-07T04:46:44;22.67;;;11.93;;
73900;SDS011;62235;52.160;7.526;2023-05-07T04:49:09;19.70;;;11.38;;
73900;SDS011;62235;52.160;7.526;2023-05-07T04:51:36;19.98;;;11.55;;
73900;SDS011;62235;52.160;7.526;2023-05-07T04:54:01;22.58;;;12.15;;
73900;SDS011;62235;52.160;7.526;2023-05-07T04:56:27;22.03;;;12.43;;
73900;SDS011;62235;52.160;7.526;2023-05-07T04:58:54;23.23;;;12.63;;
73900;SDS011;62235;52.160;7.526;2023-05-07T05:01:19;20.73;;;11.97;;
73900;SDS011;62235;52.160;7.526;2023-05-07T05:03:44;23.20;;;12.07;;
73900;SDS011;62235;52.160;7.526;2023-05-07T05:06:10;19.13;;;11.37;;
73900;SDS011;62235;52.160;7.526;2023-05-07T05:08:35;21.65;;;12.70;;
73900;SDS011;62235;52.160;7.526;2023-05-07T05:11:01;23.57;;;12.13;;
73900;SDS011;62235;52.160;7.526;2023-05-07T05:13:27;19.98;;;11.95;;
73900;SDS011;62235;52.160;7.526;2023-05-07T05:15:52;20.43;;;12.10;;
73900;SDS011;62235;52.160;7.526;2023-05-07T05:18:17;22.43;;;12.67;;
73900;SDS011;62235;52.160;7.526;2023-05-07T05:20:43;17.83;;;9.83;;
73900;SDS011;62235;52.160;7.526;2023-05-07T05:23:08;18.67;;;11.43;;
73900;SDS011;62235;52.160;7.526;2023-05-07T05:25:34;21.35;;;12.73;;
73900;SDS011;62235;52.160;7.526;2023-05-07T05:27:59;20.48;;;11.52;;
73900;SDS011;62235;52.160;7.526;2023-05-07T05:30:24;25.23;;;13.23;;
73900;SDS011;62235;52.160;7.526;2023-05-07T05:32:49;21.10;;;11.93;;
73900;SDS011;62235;52.160;7.526;2023-05-07T05:35:15;22.40;;;11.73;;
73900;SDS011;62235;52.160;7.526;2023-05-07T05:37:41;21.60;;;12.63;;
73900;SDS011;62235;52.160;7.526;2023-05-07T05:40:06;22.88;;;12.48;;
73900;SDS011;62235;52.160;7.526;2023-05-07T05:42:32;22.67;;;11.57;;
73900;SDS011;62235;52.160;7.526;2023-05-07T05:44:57;22.60;;;13.00;;
73900;SDS011;62235;52.160;7.526;2023-05-07T05:47:22;19.53;;;10.90;;
73900;SDS011;62235;52.160;7.526;2023-05-07T05:49:48;19.33;;;11.65;;
73900;SDS011;62235;52.160;7.526;2023-05-07T05:52:13;19.97;;;11.30;;
73900;SDS011;62235;52.160;7.526;2023-05-07T05:54:39;19.05;;;12.15;;
73900;SDS011;62235;52.160;7.526;2023-05-07T05:57:04;21.05;;;12.20;;
73900;SDS011;62235;52.160;7.526;2023-05-07T05:59:30;21.77;;;12.05;;
73900;SDS011;62235;52.160;7.526;2023-05-07T06:01:55;18.60;;;11.25;;
73900;SDS011;62235;52.160;7.526;2023-05-07T06:04:21;20.13;;;10.05;;
73900;SDS011;62235;52.160;7.526;2023-05-07T06:06:46;19.38;;;12.10;;
73900;SDS011;62235;52.160;7.526;2023-05-07T06:09:11;21.87;;;12.20;;
73900;SDS011;62235;52.160;7.526;2023-05-07T06:11:37;18.57;;;11.03;;
73900;SDS011;62235;52.160;7.526;2023-05-07T06:14:02;20.13;;;12.13;;
73900;SDS011;62235;52.160;7.526;2023-05-07T06:16:27;20.80;;;11.83;;
73900;SDS011;62235;52.160;7.526;2023-05-07T06:18:53;19.35;;;11.07;;
73900;SDS011;62235;52.160;7.526;2023-05-07T06:21:18;26.07;;;13.67;;
73900;SDS011;62235;52.160;7.526;2023-05-07T06:23:44;18.13;;;11.63;;
73900;SDS011;62235;52.160;7.526;2023-05-07T06:26:09;18.98;;;12.00;;
73900;SDS011;62235;52.160;7.526;2023-05-07T06:28:34;19.40;;;13.10;;
73900;SDS011;62235;52.160;7.526;2023-05-07T06:31:16;21.50;;;12.15;;
73900;SDS011;62235;52.160;7.526;2023-05-07T06:33:48;23.98;;;11.10;;
73900;SDS011;62235;52.160;7.526;2023-05-07T06:36:13;17.17;;;10.23;;
73900;SDS011;62235;52.160;7.526;2023-05-07T06:38:39;20.70;;;11.52;;
73900;SDS011;62235;52.160;7.526;2023-05-07T06:41:05;20.70;;;12.13;;
73900;SDS011;62235;52.160;7.526;2023-05-07T06:43:31;19.50;;;11.45;;
73900;SDS011;62235;52.160;7.526;2023-05-07T06:45:56;20.23;;;12.75;;
73900;SDS011;62235;52.160;7.526;2023-05-07T06:48:22;19.95;;;11.65;;
73900;SDS011;62235;52.160;7.526;2023-05-07T06:50:47;19.30;;;11.70;;
73900;SDS011;62235;52.160;7.526;2023-05-07T06:53:12;17.20;;;10.70;;
73900;SDS011;62235;52.160;7.526;2023-05-07T06:55:38;20.83;;;12.70;;
73900;SDS011;62235;52.160;7.526;2023-05-07T06:58:03;21.70;;;12.90;;
73900;SDS011;62235;52.160;7.526;2023-05-07T07:00:29;20.80;;;12.90;;
73900;SDS011;62235;52.160;7.526;2023-05-07T07:02:58;21.83;;;13.05;;
73900;SDS011;62235;52.160;7.526;2023-05-07T07:05:26;18.05;;;10.88;;
73900;SDS011;62235;52.160;7.526;2023-05-07T07:07:51;20.40;;;11.47;;
73900;SDS011;62235;52.160;7.526;2023-05-07T07:10:19;17.80;;;10.75;;
73900;SDS011;62235;52.160;7.526;2023-05-07T07:12:45;19.08;;;11.88;;
73900;SDS011;62235;52.160;7.526;2023-05-07T07:15:10;17.38;;;11.48;;
73900;SDS011;62235;52.160;7.526;2023-05-07T07:17:36;20.00;;;11.98;;
73900;SDS011;62235;52.160;7.526;2023-05-07T07:20:02;18.73;;;10.68;;
73900;SDS011;62235;52.160;7.526;2023-05-07T07:22:27;19.75;;;13.20;;
73900;SDS011;62235;52.160;7.526;2023-05-07T07:24:53;20.98;;;13.75;;
73900;SDS011;62235;52.160;7.526;2023-05-07T07:27:18;20.20;;;12.23;;
73900;SDS011;62235;52.160;7.526;2023-05-07T07:29:43;16.88;;;8.10;;
73900;SDS011;62235;52.160;7.526;2023-05-07T07:32:09;20.57;;;12.00;;
73900;SDS011;62235;52.160;7.526;2023-05-07T07:34:34;19.73;;;12.40;;
73900;SDS011;62235;52.160;7.526;2023-05-07T07:37:00;20.77;;;11.80;;
73900;SDS011;62235;52.160;7.526;2023-05-07T07:39:30;18.60;;;11.52;;
73900;SDS011;62235;52.160;7.526;2023-05-07T07:41:55;19.73;;;10.63;;
73900;SDS011;62235;52.160;7.526;2023-05-07T07:44:21;19.33;;;10.67;;
73900;SDS011;62235;52.160;7.526;2023-05-07T07:46:46;19.25;;;12.50;;
73900;SDS011;62235;52.160;7.526;2023-05-07T07:49:11;20.20;;;12.13;;
73900;SDS011;62235;52.160;7.526;2023-05-07T07:51:37;18.10;;;11.50;;
73900;SDS011;62235;52.160;7.526;2023-05-07T07:54:02;18.73;;;11.50;;
73900;SDS011;62235;52.160;7.526;2023-05-07T07:56:28;14.40;;;8.25;;
73900;SDS011;62235;52.160;7.526;2023-05-07T07:58:53;20.33;;;12.00;;
73900;SDS011;62235;52.160;7.526;2023-05-07T08:01:18;19.23;;;12.90;;
73900;SDS011;62235;52.160;7.526;2023-05-07T08:03:44;19.33;;;11.65;;
73900;SDS011;62235;52.160;7.526;2023-05-07T08:06:10;19.08;;;11.10;;
73900;SDS011;62235;52.160;7.526;2023-05-07T08:08:35;21.33;;;12.93;;
73900;SDS011;62235;52.160;7.526;2023-05-07T08:11:01;20.48;;;12.15;;
73900;SDS011;62235;52.160;7.526;2023-05-07T08:13:26;20.02;;;10.98;;
73900;SDS011;62235;52.160;7.526;2023-05-07T08:15:52;17.90;;;11.73;;
73900;SDS011;62235;52.160;7.526;2023-05-07T08:18:18;21.13;;;12.87;;
73900;SDS011;62235;52.160;7.526;2023-05-07T08:20:43;19.05;;;12.95;;
73900;SDS011;62235;52.160;7.526;2023-05-07T08:23:09;18.13;;;11.65;;
73900;SDS011;62235;52.160;7.526;2023-05-07T08:25:34;20.87;;;11.07;;
73900;SDS011;62235;52.160;7.526;2023-05-07T08:28:00;16.75;;;9.65;;
73900;SDS011;62235;52.160;7.526;2023-05-07T08:30:25;18.30;;;11.85;;
73900;SDS011;62235;52.160;7.526;2023-05-07T08:32:51;18.10;;;9.83;;
73900;SDS011;62235;52.160;7.526;2023-05-07T08:35:16;18.48;;;10.35;;
73900;SDS011;62235;52.160;7.526;2023-05-07T08:37:42;18.83;;;10.80;;
73900;SDS011;62235;52.160;7.526;2023-05-07T08:40:07;17.83;;;11.52;;
73900;SDS011;62235;52.160;7.526;2023-05-07T08:42:35;20.00;;;11.73;;
73900;SDS011;62235;52.160;7.526;2023-05-07T08:45:01;19.38;;;11.88;;
73900;SDS011;62235;52.160;7.526;2023-05-07T08:47:38;19.48;;;12.38;;
73900;SDS011;62235;52.160;7.526;2023-05-07T08:50:05;18.05;;;11.30;;
73900;SDS011;62235;52.160;7.526;2023-05-07T08:52:31;19.88;;;12.57;;
73900;SDS011;62235;52.160;7.526;2023-05-07T08:54:56;18.73;;;11.60;;
73900;SDS011;62235;52.160;7.526;2023-05-07T08:57:22;20.00;;;11.80;;
73900;SDS011;62235;52.160;7.526;2023-05-07T08:59:49;19.95;;;12.85;;
73900;SDS011;62235;52.160;7.526;2023-05-07T09:02:14;18.50;;;11.55;;
73900;SDS011;62235;52.160;7.526;2023-05-07T09:04:41;18.00;;;11.73;;
73900;SDS011;62235;52.160;7.526;2023-05-07T09:07:06;18.15;;;12.50;;
73900;SDS011;62235;52.160;7.526;2023-05-07T09:09:32;16.80;;;9.68;;
73900;SDS011;62235;52.160;7.526;2023-05-07T09:11:58;18.55;;;11.10;;
73900;SDS011;62235;52.160;7.526;2023-05-07T09:14:24;19.00;;;11.90;;
73900;SDS011;62235;52.160;7.526;2023-05-07T09:16:51;19.83;;;11.07;;
73900;SDS011;62235;52.160;7.526;2023-05-07T09:19:21;16.50;;;9.80;;
73900;SDS011;62235;52.160;7.526;2023-05-07T09:21:50;17.00;;;10.00;;
73900;SDS011;62235;52.160;7.526;2023-05-07T09:24:22;17.30;;;10.85;;
73900;SDS011;62235;52.160;7.526;2023-05-07T09:26:47;19.53;;;12.17;;
73900;SDS011;62235;52.160;7.526;2023-05-07T09:29:13;17.37;;;10.63;;
73900;SDS011;62235;52.160;7.526;2023-05-07T09:31:38;16.73;;;11.23;;
73900;SDS011;62235;52.160;7.526;2023-05-07T09:34:07;17.45;;;10.63;;
73900;SDS011;62235;52.160;7.526;2023-05-07T09:36:32;17.42;;;10.52;;
73900;SDS011;62235;52.160;7.526;2023-05-07T09:39:01;16.03;;;10.50;;
73900;SDS011;62235;52.160;7.526;2023-05-07T09:41:26;18.77;;;10.48;;
73900;SDS011;62235;52.160;7.526;2023-05-07T09:43:55;17.42;;;10.05;;
73900;SDS011;62235;52.160;7.526;2023-05-07T09:46:20;20.88;;;11.82;;
73900;SDS011;62235;52.160;7.526;2023-05-07T09:48:50;16.55;;;9.93;;
73900;SDS011;62235;52.160;7.526;2023-05-07T09:51:39;16.30;;;9.93;;
73900;SDS011;62235;52.160;7.526;2023-05-07T09:54:04;15.48;;;9.80;;
73900;SDS011;62235;52.160;7.526;2023-05-07T09:56:30;16.30;;;8.93;;
73900;SDS011;62235;52.160;7.526;2023-05-07T09:58:57;15.80;;;10.73;;
73900;SDS011;62235;52.160;7.526;2023-05-07T10:01:24;18.60;;;11.15;;
73900;SDS011;62235;52.160;7.526;2023-05-07T10:03:50;15.57;;;10.98;;
73900;SDS011;62235;52.160;7.526;2023-05-07T10:06:16;18.20;;;11.52;;
73900;SDS011;62235;52.160;7.526;2023-05-07T10:08:42;14.75;;;10.85;;
73900;SDS011;62235;52.160;7.526;2023-05-07T10:11:08;15.65;;;11.30;;
73900;SDS011;62235;52.160;7.526;2023-05-07T10:13:34;15.50;;;10.25;;
73900;SDS011;62235;52.160;7.526;2023-05-07T10:16:01;15.88;;;10.98;;
73900;SDS011;62235;52.160;7.526;2023-05-07T10:18:27;14.63;;;10.10;;
73900;SDS011;62235;52.160;7.526;2023-05-07T10:20:54;14.45;;;10.32;;
73900;SDS011;62235;52.160;7.526;2023-05-07T10:23:23;14.52;;;10.57;;
73900;SDS011;62235;52.160;7.526;2023-05-07T10:25:48;13.65;;;9.38;;
73900;SDS011;62235;52.160;7.526;2023-05-07T10:28:14;19.10;;;9.00;;
73900;SDS011;62235;52.160;7.526;2023-05-07T10:33:34;14.15;;;10.25;;
73900;SDS011;62235;52.160;7.526;2023-05-07T10:36:01;15.95;;;10.13;;
73900;SDS011;62235;52.160;7.526;2023-05-07T10:38:29;14.50;;;9.75;;
73900;SDS011;62235;52.160;7.526;2023-05-07T10:40:55;14.68;;;7.28;;
73900;SDS011;62235;52.160;7.526;2023-05-07T10:43:20;13.30;;;9.85;;
73900;SDS011;62235;52.160;7.526;2023-05-07T10:49:25;14.63;;;10.25;;
73900;SDS011;62235;52.160;7.526;2023-05-07T10:51:26;13.90;;;9.32;;
73900;SDS011;62235;52.160;7.526;2023-05-07T10:54:18;13.95;;;9.10;;
73900;SDS011;62235;52.160;7.526;2023-05-07T10:56:40;13.18;;;10.32;;
73900;SDS011;62235;52.160;7.526;2023-05-07T11:01:58;13.75;;;8.35;;
73900;SDS011;62235;52.160;7.526;2023-05-07T11:04:27;12.32;;;8.68;;
73900;SDS011;62235;52.160;7.526;2023-05-07T11:09:53;11.60;;;7.88;;
73900;SDS011;62235;52.160;7.526;2023-05-07T11:15:07;11.27;;;7.50;;
73900;SDS011;62235;52.160;7.526;2023-05-07T11:17:53;12.05;;;7.78;;
73900;SDS011;62235;52.160;7.526;2023-05-07T11:20:19;11.93;;;8.20;;
73900;SDS011;62235;52.160;7.526;2023-05-07T11:22:45;12.38;;;9.18;;
73900;SDS011;62235;52.160;7.526;2023-05-07T11:25:11;10.27;;;7.88;;
73900;SDS011;62235;52.160;7.526;2023-05-07T11:27:42;11.18;;;7.35;;
73900;SDS011;62235;52.160;7.526;2023-05-07T11:30:08;11.63;;;7.90;;
73900;SDS011;62235;52.160;7.526;2023-05-07T11:32:34;10.27;;;7.57;;
73900;SDS011;62235;52.160;7.526;2023-05-07T11:34:59;8.80;;;6.90;;
73900;SDS011;62235;52.160;7.526;2023-05-07T11:37:26;16.45;;;6.88;;
73900;SDS011;62235;52.160;7.526;2023-05-07T11:40:05;7.90;;;5.40;;
73900;SDS011;62235;52.160;7.526;2023-05-07T11:42:33;9.18;;;7.68;;
73900;SDS011;62235;52.160;7.526;2023-05-07T11:44:59;9.80;;;7.20;;
73900;SDS011;62235;52.160;7.526;2023-05-07T11:47:25;9.70;;;6.88;;
73900;SDS011;62235;52.160;7.526;2023-05-07T11:49:52;7.93;;;5.72;;
73900;SDS011;62235;52.160;7.526;2023-05-07T11:52:18;10.68;;;6.90;;
73900;SDS011;62235;52.160;7.526;2023-05-07T11:54:52;8.82;;;6.90;;
73900;SDS011;62235;52.160;7.526;2023-05-07T11:57:18;8.10;;;5.95;;
73900;SDS011;62235;52.160;7.526;2023-05-07T11:59:45;9.82;;;6.72;;
73900;SDS011;62235;52.160;7.526;2023-05-07T12:02:13;8.23;;;6.50;;
73900;SDS011;62235;52.160;7.526;2023-05-07T12:04:41;9.35;;;6.80;;
73900;SDS011;62235;52.160;7.526;2023-05-07T12:07:13;8.30;;;4.88;;
73900;SDS011;62235;52.160;7.526;2023-05-07T12:09:39;7.80;;;6.45;;
73900;SDS011;62235;52.160;7.526;2023-05-07T12:12:05;6.55;;;5.00;;
73900;SDS011;62235;52.160;7.526;2023-05-07T12:14:31;9.75;;;5.88;;
73900;SDS011;62235;52.160;7.526;2023-05-07T12:16:57;7.93;;;6.03;;
73900;SDS011;62235;52.160;7.526;2023-05-07T12:19:23;8.75;;;6.45;;
73900;SDS011;62235;52.160;7.526;2023-05-07T12:21:49;8.63;;;6.28;;
73900;SDS011;62235;52.160;7.526;2023-05-07T12:24:14;6.88;;;5.05;;
73900;SDS011;62235;52.160;7.526;2023-05-07T12:26:40;7.68;;;5.80;;
73900;SDS011;62235;52.160;7.526;2023-05-07T12:29:06;7.70;;;5.55;;
73900;SDS011;62235;52.160;7.526;2023-05-07T12:31:31;7.95;;;5.93;;
73900;SDS011;62235;52.160;7.526;2023-05-07T12:33:56;6.68;;;4.80;;
73900;SDS011;62235;52.160;7.526;2023-05-07T12:36:22;7.23;;;5.20;;
73900;SDS011;62235;52.160;7.526;2023-05-07T12:38:50;7.07;;;4.90;;
73900;SDS011;62235;52.160;7.526;2023-05-07T12:43:42;8.32;;;5.57;;
73900;SDS011;62235;52.160;7.526;2023-05-07T12:46:09;7.47;;;5.35;;
73900;SDS011;62235;52.160;7.526;2023-05-07T12:48:36;6.50;;;4.35;;
73900;SDS011;62235;52.160;7.526;2023-05-07T12:53:28;8.37;;;5.33;;
73900;SDS011;62235;52.160;7.526;2023-05-07T12:55:55;10.15;;;5.00;;
73900;SDS011;62235;52.160;7.526;2023-05-07T12:58:28;7.50;;;5.60;;
73900;SDS011;62235;52.160;7.526;2023-05-07T13:00:56;8.35;;;4.07;;
73900;SDS011;62235;52.160;7.526;2023-05-07T13:03:33;7.18;;;5.18;;
73900;SDS011;62235;52.160;7.526;2023-05-07T13:06:01;6.93;;;4.75;;
73900;SDS011;62235;52.160;7.526;2023-05-07T13:08:38;5.57;;;4.65;;
73900;SDS011;62235;52.160;7.526;2023-05-07T13:11:10;6.57;;;4.43;;
73900;SDS011;62235;52.160;7.526;2023-05-07T13:13:37;6.40;;;4.85;;
73900;SDS011;62235;52.160;7.526;2023-05-07T13:16:04;5.45;;;4.55;;
73900;SDS011;62235;52.160;7.526;2023-05-07T13:18:30;9.07;;;5.57;;
73900;SDS011;62235;52.160;7.526;2023-05-07T13:20:56;5.97;;;5.00;;
73900;SDS011;62235;52.160;7.526;2023-05-07T13:23:22;5.95;;;4.22;;
73900;SDS011;62235;52.160;7.526;2023-05-07T13:25:47;5.25;;;4.10;;
73900;SDS011;62235;52.160;7.526;2023-05-07T13:28:13;7.82;;;5.20;;
73900;SDS011;62235;52.160;7.526;2023-05-07T13:30:38;5.43;;;3.22;;
73900;SDS011;62235;52.160;7.526;2023-05-07T13:33:04;5.35;;;4.80;;
73900;SDS011;62235;52.160;7.526;2023-05-07T13:35:29;6.18;;;3.92;;
73900;SDS011;62235;52.160;7.526;2023-05-07T13:37:55;4.93;;;3.83;;
73900;SDS011;62235;52.160;7.526;2023-05-07T13:40:21;5.35;;;3.72;;
73900;SDS011;62235;52.160;7.526;2023-05-07T13:42:47;5.97;;;4.50;;
73900;SDS011;62235;52.160;7.526;2023-05-07T13:45:12;6.13;;;4.03;;
73900;SDS011;62235;52.160;7.526;2023-05-07T13:47:39;5.88;;;3.95;;
73900;SDS011;62235;52.160;7.526;2023-05-07T13:50:08;5.38;;;3.70;;
73900;SDS011;62235;52.160;7.526;2023-05-07T13:52:34;7.82;;;3.83;;
73900;SDS011;62235;52.160;7.526;2023-05-07T13:54:59;6.47;;;4.85;;
73900;SDS011;62235;52.160;7.526;2023-05-07T13:57:24;5.57;;;4.57;;
73900;SDS011;62235;52.160;7.526;2023-05-07T13:59:50;6.27;;;4.60;;
73900;SDS011;62235;52.160;7.526;2023-05-07T14:02:15;6.10;;;4.73;;
73900;SDS011;62235;52.160;7.526;2023-05-07T14:04:40;5.85;;;4.38;;
73900;SDS011;62235;52.160;7.526;2023-05-07T14:07:06;5.75;;;3.65;;
73900;SDS011;62235;52.160;7.526;2023-05-07T14:09:31;7.15;;;5.30;;
73900;SDS011;62235;52.160;7.526;2023-05-07T14:11:56;7.25;;;4.78;;
73900;SDS011;62235;52.160;7.526;2023-05-07T14:14:22;5.40;;;4.10;;
73900;SDS011;62235;52.160;7.526;2023-05-07T14:16:47;7.20;;;4.40;;
73900;SDS011;62235;52.160;7.526;2023-05-07T14:19:12;5.97;;;4.40;;
73900;SDS011;62235;52.160;7.526;2023-05-07T14:21:38;6.40;;;4.50;;
73900;SDS011;62235;52.160;7.526;2023-05-07T14:24:03;6.53;;;4.10;;
73900;SDS011;62235;52.160;7.526;2023-05-07T14:26:30;5.43;;;4.22;;
73900;SDS011;62235;52.160;7.526;2023-05-07T14:28:56;5.40;;;4.07;;
73900;SDS011;62235;52.160;7.526;2023-05-07T14:31:23;6.38;;;4.35;;
73900;SDS011;62235;52.160;7.526;2023-05-07T14:33:49;6.15;;;4.30;;
73900;SDS011;62235;52.160;7.526;2023-05-07T14:36:15;5.72;;;4.22;;
73900;SDS011;62235;52.160;7.526;2023-05-07T14:38:42;6.72;;;4.50;;
73900;SDS011;62235;52.160;7.526;2023-05-07T14:41:07;6.00;;;4.15;;
73900;SDS011;62235;52.160;7.526;2023-05-07T14:43:33;7.50;;;4.75;;